Terminal Aerodrome Forecast
Issued by NWS

Home | Current Version | Previous Version | Text Only | Print | Product List | Glossary Off
Versions: 1 2 3 4 5 6 7 8 9 10 11 12 13 14 15 16 17 18 19 20

000
FTUS42 KMHX 261332 AAA
TAFPGV
TAF AMD
KPGV 261332Z 2614/2712 01014G17KT P6SM -DZ BKN011 OVC014
     FM261600 02008KT 5SM BR OVC007
     FM270000 VRB03KT 2SM BR OVC007
      AMD LTD TO CLD VIS AND WIND=

USA.gov is the U.S. government's official web portal to all federal, state and local government web resources and services.